EHDL

Deelen Air Base Airport

Arnhem, The Netherlands
METAR EHDL 170755Z AUTO 14002KT 2200 BR SCT000 M04/M04 Q1021 RED
Observed Flight Rules
Dec-17 @ 07:55 UTC (23 minutes ago) Instrument Flight Rules
Wind Visibility Clouds Conditions
140° at 2 knots 2,205 meters
  • Scattered
  • Mist
Temperatures Readings
Current -4°C / 25°F
Dewpoint -4°C / 25°F
Humidity 100%
Altimeter 30.15" Hg
Pressure 1021 hPa
Elevation 52
METAR EHDL 170755Z AUTO 14002KT 2200 BR SCT000 M04/M04 Q1021 RED
Observed Flight Rules
Dec-17 @ 07:55 UTC
(23 minutes ago)
IFR
Wind Visibility
140° at 2 knots 2,205 meters
Clouds
  • Scattered
Conditions
  • Mist
Temperature Dewpoint
-4°C / 25°F -4°C / 25°F
Humidity Altimeter Pressure
100% 30.15" Hg 1021 hPa